createdAt,value
2018-12-24T00:02:04.046Z,12.70
2018-12-24T00:04:32.213Z,12.80
2018-12-24T00:07:00.649Z,12.90
2018-12-24T00:09:30.848Z,12.80
2018-12-24T00:12:06.781Z,12.90
2018-12-24T00:14:28.481Z,12.80
2018-12-24T00:16:59.077Z,12.70
2018-12-24T00:19:27.282Z,12.60
2018-12-24T00:21:55.467Z,12.60
2018-12-24T00:24:23.633Z,12.60
2018-12-24T00:26:54.280Z,12.60
2018-12-24T00:29:22.482Z,12.50
2018-12-24T00:31:50.739Z,12.50
2018-12-24T00:34:18.875Z,12.50
2018-12-24T00:36:47.113Z,12.60
2018-12-24T00:39:15.678Z,12.60
2018-12-24T00:41:44.011Z,11.90
2018-12-24T00:44:12.190Z,11.50
2018-12-24T00:46:42.439Z,11.20
2018-12-24T00:49:11.873Z,11.00
2018-12-24T00:51:40.496Z,10.80
2018-12-24T00:54:09.714Z,10.80
2018-12-24T00:56:40.185Z,10.90
2018-12-24T00:59:10.404Z,10.80
2018-12-24T01:01:38.615Z,10.50
2018-12-24T01:04:08.753Z,9.90
2018-12-24T01:06:38.063Z,9.40
2018-12-24T01:09:12.039Z,8.90
2018-12-24T01:11:40.628Z,8.70
2018-12-24T01:14:08.808Z,8.50
2018-12-24T01:16:37.216Z,8.40
2018-12-24T01:19:05.360Z,8.40
2018-12-24T01:21:33.521Z,8.40
2018-12-24T01:24:03.938Z,8.40
2018-12-24T01:26:32.140Z,8.30
2018-12-24T01:29:00.326Z,8.20
2018-12-24T01:31:28.470Z,8.20
2018-12-24T01:33:56.664Z,8.30
2018-12-24T01:36:24.838Z,8.00
2018-12-24T01:38:53.001Z,7.90
2018-12-24T01:41:21.164Z,8.00
2018-12-24T01:43:50.366Z,8.10
2018-12-24T01:46:18.557Z,8.10
2018-12-24T01:48:47.972Z,8.30
2018-12-24T01:51:18.220Z,8.20
2018-12-24T01:53:46.469Z,8.20
2018-12-24T01:56:14.977Z,8.10
2018-12-24T01:58:43.109Z,8.00
2018-12-24T02:01:11.530Z,8.10
2018-12-24T02:03:39.766Z,8.20
2018-12-24T02:06:07.924Z,8.30
2018-12-24T02:08:36.083Z,8.20
2018-12-24T02:11:04.569Z,8.30
2018-12-24T02:13:32.742Z,8.50
2018-12-24T02:16:00.920Z,8.40
2018-12-24T02:18:30.114Z,8.30
2018-12-24T02:20:58.280Z,8.20
2018-12-24T02:23:31.697Z,8.10
2018-12-24T02:25:59.982Z,8.10
2018-12-24T02:28:28.132Z,8.30
2018-12-24T02:30:58.281Z,8.20
2018-12-24T02:33:26.420Z,8.30
2018-12-24T02:35:54.597Z,8.00
2018-12-24T02:38:24.417Z,7.70
2018-12-24T02:40:52.901Z,7.70
2018-12-24T02:43:21.380Z,7.50
2018-12-24T02:45:50.563Z,7.50
2018-12-24T02:48:18.741Z,7.60
2018-12-24T02:50:46.909Z,7.50
2018-12-24T02:53:15.083Z,7.40
2018-12-24T02:55:43.257Z,6.90
2018-12-24T02:58:11.768Z,6.80
2018-12-24T03:00:41.964Z,6.80
2018-12-24T03:03:12.368Z,6.90
2018-12-24T03:05:44.360Z,7.10
2018-12-24T03:08:16.768Z,7.10
2018-12-24T03:10:46.128Z,7.20
2018-12-24T03:13:21.168Z,7.30
2018-12-24T03:15:57.725Z,7.10
2018-12-24T03:18:26.941Z,6.80
2018-12-24T03:20:56.124Z,6.70
2018-12-24T03:23:24.307Z,6.60
2018-12-24T03:25:52.788Z,6.40
2018-12-24T03:28:21.266Z,6.40
2018-12-24T03:30:50.457Z,6.60
2018-12-24T03:33:18.935Z,6.60
2018-12-24T03:35:47.130Z,6.60
2018-12-24T03:38:18.383Z,6.50
2018-12-24T03:40:46.835Z,6.60
2018-12-24T03:43:16.048Z,6.40
2018-12-24T03:45:44.277Z,6.20
2018-12-24T03:48:28.676Z,6.20
2018-12-24T03:50:58.896Z,6.00
2018-12-24T03:53:35.990Z,5.90
2018-12-24T03:56:04.134Z,5.90
2018-12-24T03:58:33.354Z,5.90
2018-12-24T04:01:13.717Z,5.80
2018-12-24T04:03:41.940Z,5.90
2018-12-24T04:06:11.221Z,6.00
2018-12-24T04:08:39.312Z,6.20
2018-12-24T04:11:07.528Z,6.30
2018-12-24T04:13:35.697Z,6.40
2018-12-24T04:16:04.113Z,6.10
2018-12-24T04:18:32.236Z,6.10
2018-12-24T04:21:00.408Z,6.20
2018-12-24T04:23:28.591Z,6.10
2018-12-24T04:25:56.781Z,6.10
2018-12-24T04:28:25.983Z,6.10
2018-12-24T04:30:55.174Z,6.00
2018-12-24T04:33:24.353Z,6.10
2018-12-24T04:35:52.527Z,6.00
2018-12-24T04:38:20.692Z,5.90
2018-12-24T04:40:50.852Z,5.90
2018-12-24T04:43:19.003Z,5.80
2018-12-24T04:45:48.404Z,5.90
2018-12-24T04:48:19.533Z,6.00
2018-12-24T04:50:47.997Z,6.20
2018-12-24T04:53:16.202Z,6.20
2018-12-24T04:55:44.375Z,6.40
2018-12-24T04:58:12.562Z,6.30
2018-12-24T05:00:45.209Z,6.10
2018-12-24T05:03:20.464Z,6.10
2018-12-24T05:05:50.922Z,5.90
2018-12-24T05:08:21.134Z,5.90
2018-12-24T05:10:49.491Z,5.80
2018-12-24T05:13:18.320Z,5.90
2018-12-24T05:15:46.433Z,6.00
2018-12-24T05:18:20.604Z,6.30
2018-12-24T05:20:48.720Z,6.20
2018-12-24T05:23:17.882Z,6.40
2018-12-24T05:25:46.528Z,6.40
2018-12-24T05:28:14.697Z,6.30
2018-12-24T05:30:42.871Z,6.10
2018-12-24T05:33:13.093Z,6.00
2018-12-24T05:35:41.258Z,6.20
2018-12-24T05:38:11.482Z,6.30
2018-12-24T05:40:46.312Z,6.30
2018-12-24T05:43:14.494Z,6.10
2018-12-24T05:45:43.669Z,6.10
2018-12-24T05:48:11.859Z,6.20
2018-12-24T05:50:42.091Z,6.30
2018-12-24T05:53:10.233Z,6.40
2018-12-24T05:55:38.421Z,6.50
2018-12-24T05:58:06.546Z,6.40
2018-12-24T06:00:35.026Z,6.50
2018-12-24T06:03:03.243Z,6.60
2018-12-24T06:05:31.425Z,6.70
2018-12-24T06:08:00.621Z,6.60
2018-12-24T06:10:30.880Z,6.70
2018-12-24T06:12:58.948Z,6.70
2018-12-24T06:15:27.111Z,6.70
2018-12-24T06:17:55.262Z,6.60
2018-12-24T06:20:23.484Z,6.30
2018-12-24T06:22:51.593Z,6.40
2018-12-24T06:25:20.803Z,6.50
2018-12-24T06:27:48.974Z,6.40
2018-12-24T06:30:26.318Z,6.50
2018-12-24T06:32:54.541Z,6.60
2018-12-24T06:35:28.447Z,6.70
2018-12-24T06:37:56.606Z,6.70
2018-12-24T06:40:25.825Z,6.40
2018-12-24T06:42:54.007Z,6.30
2018-12-24T06:45:22.194Z,6.50
2018-12-24T06:47:52.614Z,6.60
2018-12-24T06:50:31.655Z,6.50
2018-12-24T06:53:08.395Z,6.50
2018-12-24T06:55:36.552Z,6.30
2018-12-24T06:58:33.611Z,6.60
2018-12-24T07:01:02.829Z,6.80
2018-12-24T07:03:31.244Z,7.00
2018-12-24T07:05:59.608Z,7.10
2018-12-24T07:08:27.777Z,7.00
2018-12-24T07:10:59.260Z,7.10
2018-12-24T07:13:27.476Z,7.20
2018-12-24T07:15:55.646Z,7.30
2018-12-24T07:18:35.270Z,7.30
2018-12-24T07:21:04.544Z,7.30
2018-12-24T07:23:33.812Z,6.90
2018-12-24T07:26:02.066Z,6.90
2018-12-24T07:28:32.317Z,6.90
2018-12-24T07:31:01.479Z,7.00
2018-12-24T07:33:33.950Z,7.00
2018-12-24T07:36:02.145Z,6.90
2018-12-24T07:38:30.306Z,7.10
2018-12-24T07:40:58.491Z,7.30
2018-12-24T07:43:26.650Z,7.50
2018-12-24T07:45:56.916Z,7.40
2018-12-24T07:48:25.091Z,7.20
2018-12-24T07:50:54.232Z,7.30
2018-12-24T07:53:22.422Z,7.20
2018-12-24T07:55:50.953Z,7.10
2018-12-24T07:58:19.272Z,7.20
2018-12-24T08:00:47.462Z,7.20
2018-12-24T08:03:18.795Z,7.20
2018-12-24T08:05:46.981Z,7.00
2018-12-24T08:08:23.524Z,7.10
2018-12-24T08:10:54.482Z,7.10
2018-12-24T08:13:24.755Z,7.20
2018-12-24T08:15:55.783Z,7.10
2018-12-24T08:18:23.906Z,7.10
2018-12-24T08:20:52.531Z,7.30
2018-12-24T08:23:22.723Z,7.40
2018-12-24T08:25:50.960Z,7.20
2018-12-24T08:28:21.937Z,7.30
2018-12-24T08:30:52.698Z,7.20
2018-12-24T08:33:27.693Z,7.30
2018-12-24T08:36:02.678Z,7.30
2018-12-24T08:38:31.518Z,7.80
2018-12-24T08:41:00.721Z,7.80
2018-12-24T08:43:28.881Z,7.90
2018-12-24T08:45:59.137Z,7.80
2018-12-24T08:48:28.292Z,7.60
2018-12-24T08:50:56.551Z,7.40
2018-12-24T08:53:26.018Z,7.60
2018-12-24T08:55:54.433Z,7.30
2018-12-24T08:58:22.933Z,7.30
2018-12-24T09:00:52.159Z,7.40
2018-12-24T09:03:20.298Z,7.20
2018-12-24T09:05:52.392Z,7.20
2018-12-24T09:08:20.603Z,7.20
2018-12-24T09:10:48.745Z,7.10
2018-12-24T09:13:18.947Z,7.10
2018-12-24T09:15:50.104Z,7.10
2018-12-24T09:18:21.117Z,6.90
2018-12-24T09:20:53.593Z,7.20
2018-12-24T09:23:22.037Z,7.30
2018-12-24T09:25:50.279Z,7.40
2018-12-24T09:28:18.437Z,8.20
2018-12-24T09:30:54.304Z,8.50
2018-12-24T09:33:27.022Z,8.50
2018-12-24T09:35:55.242Z,8.30
2018-12-24T09:38:23.642Z,7.90
2018-12-24T09:40:55.982Z,7.70
2018-12-24T09:43:25.198Z,7.80
2018-12-24T09:45:53.363Z,8.00
2018-12-24T09:48:21.790Z,7.80
2018-12-24T09:50:51.986Z,7.70
2018-12-24T09:53:22.276Z,7.60
2018-12-24T09:55:50.460Z,7.70
2018-12-24T09:58:18.658Z,7.60
2018-12-24T10:00:46.787Z,7.50
2018-12-24T10:03:21.234Z,7.70
2018-12-24T10:05:52.726Z,7.70
2018-12-24T10:08:23.711Z,7.80
2018-12-24T10:10:52.920Z,7.70
2018-12-24T10:13:23.850Z,7.50
2018-12-24T10:15:52.024Z,7.40
2018-12-24T10:18:20.252Z,7.50
2018-12-24T10:20:48.371Z,7.70
2018-12-24T10:23:17.897Z,7.80
2018-12-24T10:25:48.085Z,7.90
2018-12-24T10:28:16.283Z,8.00
2018-12-24T10:30:45.476Z,7.80
2018-12-24T10:33:14.669Z,7.80
2018-12-24T10:35:42.833Z,8.10
2018-12-24T10:38:11.055Z,8.00
2018-12-24T10:40:47.692Z,7.70
2018-12-24T10:43:15.983Z,7.80
2018-12-24T10:45:45.157Z,7.90
2018-12-24T10:48:13.343Z,8.10
2018-12-24T10:50:41.599Z,7.90
2018-12-24T10:53:10.046Z,7.70
2018-12-24T10:55:38.267Z,7.80
2018-12-24T10:58:07.471Z,7.90
2018-12-24T11:00:35.917Z,8.00
2018-12-24T11:03:06.052Z,7.80
2018-12-24T11:05:34.220Z,7.90
2018-12-24T11:08:02.393Z,8.10
2018-12-24T11:10:31.769Z,7.90
2018-12-24T11:13:00.049Z,7.80
2018-12-24T11:15:35.027Z,7.90
2018-12-24T11:18:03.250Z,7.60
2018-12-24T11:20:33.521Z,7.70
2018-12-24T11:23:03.624Z,8.00
2018-12-24T11:25:34.764Z,8.10
2018-12-24T11:28:04.655Z,8.00
2018-12-24T11:30:37.639Z,8.20
2018-12-24T11:33:05.890Z,8.30
2018-12-24T11:35:34.039Z,8.20
2018-12-24T11:38:02.386Z,8.30
2018-12-24T11:40:30.583Z,8.20
2018-12-24T11:42:58.748Z,8.20
2018-12-24T11:45:33.774Z,8.20
2018-12-24T11:47:56.581Z,8.10
2018-12-24T11:50:26.906Z,8.30
2018-12-24T11:52:55.618Z,8.30
2018-12-24T11:55:23.827Z,8.30
2018-12-24T11:57:52.006Z,8.50
2018-12-24T12:00:20.150Z,8.50
2018-12-24T12:02:52.592Z,8.50
2018-12-24T12:05:21.718Z,8.80
2018-12-24T12:07:49.902Z,9.00
2018-12-24T12:10:18.064Z,8.80
2018-12-24T12:12:46.248Z,8.60
2018-12-24T12:15:14.421Z,8.70
2018-12-24T12:17:42.587Z,8.60
2018-12-24T12:20:10.754Z,8.90
2018-12-24T12:22:43.524Z,8.90
2018-12-24T12:25:11.675Z,8.50
2018-12-24T12:27:40.141Z,8.50
2018-12-24T12:30:09.496Z,8.60
2018-12-24T12:32:37.907Z,8.40
2018-12-24T12:35:06.043Z,8.50
2018-12-24T12:37:34.500Z,8.50
2018-12-24T12:40:02.708Z,8.30
2018-12-24T12:42:31.884Z,8.10
2018-12-24T12:44:59.059Z,7.90
2018-12-24T12:47:28.253Z,7.30
2018-12-24T12:49:56.723Z,7.20
2018-12-24T12:52:29.078Z,7.20
2018-12-24T12:54:57.310Z,7.00
2018-12-24T12:57:28.921Z,7.00
2018-12-24T12:59:57.146Z,6.90
2018-12-24T13:02:25.537Z,7.00
2018-12-24T13:04:53.696Z,6.80
2018-12-24T13:07:23.867Z,6.50
2018-12-24T13:09:53.984Z,6.10
2018-12-24T13:12:22.173Z,5.90
2018-12-24T13:14:50.359Z,5.60
2018-12-24T13:17:19.525Z,5.50
2018-12-24T13:19:49.958Z,5.50
2018-12-24T13:22:19.086Z,5.30
2018-12-24T13:24:55.934Z,5.20
2018-12-24T13:27:24.089Z,5.30
2018-12-24T13:29:52.377Z,5.60
2018-12-24T13:32:21.871Z,5.50
2018-12-24T13:34:51.149Z,5.60
2018-12-24T13:37:19.421Z,5.80
2018-12-24T13:39:49.612Z,5.90
2018-12-24T13:42:23.908Z,6.60
2018-12-24T13:44:53.158Z,7.00
2018-12-24T13:47:22.392Z,7.10
2018-12-24T13:49:51.984Z,7.40
2018-12-24T13:52:19.760Z,7.40
2018-12-24T13:54:47.964Z,7.30
2018-12-24T13:57:18.184Z,7.20
2018-12-24T13:59:47.378Z,7.00
2018-12-24T14:02:21.315Z,6.80
2018-12-24T14:04:49.438Z,6.60
2018-12-24T14:07:18.833Z,6.50
2018-12-24T14:09:47.023Z,6.60
2018-12-24T14:12:24.261Z,6.60
2018-12-24T14:14:56.481Z,6.80
2018-12-24T14:17:29.214Z,6.80
2018-12-24T14:19:57.330Z,6.70
2018-12-24T14:22:27.574Z,6.60
2018-12-24T14:25:03.082Z,6.60
2018-12-24T14:27:31.266Z,6.60
2018-12-24T14:29:59.642Z,6.60
2018-12-24T14:32:28.136Z,6.90
2018-12-24T14:34:58.347Z,6.80
2018-12-24T14:37:26.528Z,6.90
2018-12-24T14:39:54.695Z,6.80
2018-12-24T14:42:25.185Z,7.00
2018-12-24T14:44:53.403Z,6.90
2018-12-24T14:47:21.592Z,7.00
2018-12-24T14:49:50.220Z,7.30
2018-12-24T14:52:18.438Z,7.20
2018-12-24T14:54:52.504Z,7.20
2018-12-24T14:57:23.030Z,7.00
2018-12-24T14:59:52.019Z,6.80
2018-12-24T15:02:23.742Z,6.70
2018-12-24T15:04:52.933Z,6.50
2018-12-24T15:07:21.399Z,6.60
2018-12-24T15:09:51.614Z,6.60
2018-12-24T15:12:23.792Z,6.60
2018-12-24T15:14:51.990Z,6.60
2018-12-24T15:17:21.234Z,6.30
2018-12-24T15:19:53.935Z,6.30
2018-12-24T15:22:40.620Z,6.30
2018-12-24T15:25:10.005Z,6.40
2018-12-24T15:27:38.228Z,6.40
2018-12-24T15:30:06.435Z,6.30
2018-12-24T15:32:34.571Z,6.20
2018-12-24T15:35:02.747Z,6.30
2018-12-24T15:37:30.905Z,6.30
2018-12-24T15:39:59.092Z,6.20
2018-12-24T15:42:44.465Z,6.30
2018-12-24T15:45:13.708Z,6.50
2018-12-24T15:47:42.127Z,6.80
2018-12-24T15:50:10.593Z,6.50
2018-12-24T15:52:38.838Z,6.50
2018-12-24T15:55:09.030Z,6.40
2018-12-24T15:57:50.084Z,6.30
2018-12-24T16:00:20.250Z,6.50
2018-12-24T16:02:54.206Z,6.80
2018-12-24T16:05:35.303Z,6.90
2018-12-24T16:08:03.504Z,6.90
2018-12-24T16:10:32.673Z,7.30
2018-12-24T16:13:09.854Z,7.50
2018-12-24T16:15:38.040Z,7.50
2018-12-24T16:18:07.228Z,7.70
2018-12-24T16:20:43.577Z,7.90
2018-12-24T16:23:11.798Z,7.50
2018-12-24T16:25:40.210Z,7.10
2018-12-24T16:28:08.416Z,6.90
2018-12-24T16:30:36.593Z,7.00
2018-12-24T16:33:05.797Z,7.40
2018-12-24T16:35:36.267Z,7.70
2018-12-24T16:38:04.496Z,7.40
2018-12-24T16:40:33.081Z,7.20
2018-12-24T16:43:01.240Z,7.60
2018-12-24T16:45:29.700Z,7.80
2018-12-24T16:47:57.898Z,7.70
2018-12-24T16:50:37.129Z,7.70
2018-12-24T16:53:05.309Z,7.80
2018-12-24T16:55:34.527Z,7.80
2018-12-24T16:58:14.098Z,7.70
2018-12-24T17:00:45.590Z,7.90
2018-12-24T17:03:18.265Z,8.10
2018-12-24T17:05:50.582Z,7.40
2018-12-24T17:08:26.623Z,7.30
2018-12-24T17:11:06.078Z,7.00
2018-12-24T17:13:34.200Z,7.00
2018-12-24T17:16:10.001Z,6.50
2018-12-24T17:18:39.149Z,6.30
2018-12-24T17:21:07.595Z,6.00
2018-12-24T17:23:42.668Z,6.20
2018-12-24T17:26:11.151Z,6.40
2018-12-24T17:28:45.381Z,6.30
2018-12-24T17:31:31.678Z,6.30
2018-12-24T17:34:06.191Z,6.40
2018-12-24T17:36:34.299Z,6.30
2018-12-24T17:39:02.441Z,6.50
2018-12-24T17:41:35.517Z,6.60
2018-12-24T17:44:04.080Z,6.80
2018-12-24T17:46:45.314Z,6.70
2018-12-24T17:49:14.560Z,6.60
2018-12-24T17:51:43.776Z,6.40
2018-12-24T17:54:11.962Z,6.50
2018-12-24T17:56:40.130Z,6.50
2018-12-24T17:59:08.602Z,6.50
2018-12-24T18:01:37.794Z,6.60
2018-12-24T18:04:06.222Z,6.30
2018-12-24T18:06:35.375Z,6.40
2018-12-24T18:09:07.400Z,6.40
2018-12-24T18:11:36.027Z,6.50
2018-12-24T18:14:04.217Z,6.30
2018-12-24T18:16:32.364Z,6.50
2018-12-24T18:19:00.546Z,6.90
2018-12-24T18:21:28.715Z,6.40
2018-12-24T18:23:56.889Z,6.20
2018-12-24T18:26:25.065Z,6.20
2018-12-24T18:28:53.233Z,6.40
2018-12-24T18:31:21.426Z,6.20
2018-12-24T18:33:49.607Z,6.10
2018-12-24T18:36:17.761Z,6.20
2018-12-24T18:38:45.875Z,6.10
2018-12-24T18:41:14.003Z,5.90
2018-12-24T18:43:42.186Z,6.00
2018-12-24T18:46:10.360Z,6.00
2018-12-24T18:48:38.518Z,6.40
2018-12-24T18:51:06.704Z,6.70
2018-12-24T18:53:35.160Z,6.30
2018-12-24T18:56:03.351Z,6.10
2018-12-24T18:58:31.556Z,6.00
2018-12-24T19:00:59.691Z,6.10
2018-12-24T19:03:27.872Z,5.90
2018-12-24T19:05:56.051Z,5.60
2018-12-24T19:08:24.214Z,5.50
2018-12-24T19:10:52.700Z,5.60
2018-12-24T19:13:20.921Z,5.80
2018-12-24T19:15:49.048Z,5.70
2018-12-24T19:18:17.505Z,5.90
2018-12-24T19:20:46.616Z,5.70
2018-12-24T19:23:14.795Z,5.50
2018-12-24T19:25:42.964Z,5.40
2018-12-24T19:28:11.140Z,5.50
2018-12-24T19:30:39.312Z,5.60
2018-12-24T19:33:07.501Z,5.40
2018-12-24T19:35:35.671Z,5.40
2018-12-24T19:38:03.962Z,5.20
2018-12-24T19:40:32.094Z,5.40
2018-12-24T19:43:00.306Z,5.20
2018-12-24T19:45:28.729Z,5.30
2018-12-24T19:47:57.189Z,5.60
2018-12-24T19:50:25.571Z,5.90
2018-12-24T19:52:53.963Z,5.90
2018-12-24T19:55:23.106Z,5.60
2018-12-24T19:57:51.291Z,5.60
2018-12-24T20:00:19.463Z,5.50
2018-12-24T20:02:47.632Z,5.60
2018-12-24T20:05:15.819Z,5.50
2018-12-24T20:07:46.064Z,5.60
2018-12-24T20:10:14.186Z,5.60
2018-12-24T20:12:43.420Z,5.30
2018-12-24T20:15:12.593Z,5.40
2018-12-24T20:17:41.773Z,5.20
2018-12-24T20:20:10.271Z,5.10
2018-12-24T20:22:38.443Z,5.20
2018-12-24T20:25:06.632Z,5.20
2018-12-24T20:27:35.655Z,5.10
2018-12-24T20:30:03.803Z,5.30
2018-12-24T20:32:33.236Z,5.40
2018-12-24T20:35:01.721Z,5.20
2018-12-24T20:37:29.930Z,5.10
2018-12-24T20:39:58.116Z,5.20
2018-12-24T20:42:26.504Z,5.20
2018-12-24T20:44:54.692Z,5.40
2018-12-24T20:47:22.876Z,5.20
2018-12-24T20:49:51.052Z,5.20
2018-12-24T20:52:19.490Z,5.20
2018-12-24T20:54:48.693Z,5.10
2018-12-24T20:57:16.870Z,5.10
2018-12-24T20:59:45.072Z,5.20
2018-12-24T21:02:13.200Z,5.50
2018-12-24T21:04:41.691Z,5.40
2018-12-24T21:07:09.878Z,5.50
2018-12-24T21:09:38.044Z,5.40
2018-12-24T21:12:07.312Z,5.60
2018-12-24T21:14:36.929Z,5.70
2018-12-24T21:17:06.034Z,5.60
2018-12-24T21:19:34.211Z,5.60
2018-12-24T21:22:03.427Z,5.60
2018-12-24T21:24:31.609Z,5.70
2018-12-24T21:26:59.758Z,5.50
2018-12-24T21:29:29.925Z,5.30
2018-12-24T21:31:56.107Z,5.10
2018-12-24T21:34:24.267Z,4.90
2018-12-24T21:36:52.446Z,4.70
2018-12-24T21:39:22.018Z,4.70
2018-12-24T21:41:51.196Z,4.80
2018-12-24T21:44:20.352Z,4.80
2018-12-24T21:46:48.803Z,4.80
2018-12-24T21:49:17.266Z,4.90
2018-12-24T21:51:46.404Z,4.70
2018-12-24T21:54:14.583Z,4.40
2018-12-24T21:56:43.081Z,4.30
2018-12-24T21:59:12.198Z,4.10
2018-12-24T22:01:40.328Z,4.30
2018-12-24T22:04:09.106Z,4.10
2018-12-24T22:06:37.401Z,4.00
2018-12-24T22:09:06.997Z,4.10
2018-12-24T22:11:35.402Z,4.20
2018-12-24T22:14:03.815Z,4.20
2018-12-24T22:16:32.029Z,4.00
2018-12-24T22:19:00.211Z,4.10
2018-12-24T22:21:28.654Z,4.20
2018-12-24T22:23:56.873Z,4.30
2018-12-24T22:26:25.015Z,4.20
2018-12-24T22:28:53.208Z,4.40
2018-12-24T22:31:22.399Z,4.60
2018-12-24T22:33:50.574Z,4.70
2018-12-24T22:36:18.743Z,5.30
2018-12-24T22:38:46.930Z,5.30
2018-12-24T22:41:15.092Z,5.50
2018-12-24T22:43:43.240Z,5.70
2018-12-24T22:46:11.434Z,5.50
2018-12-24T22:48:40.777Z,5.10
2018-12-24T22:51:07.778Z,5.10
2018-12-24T22:53:35.945Z,5.00
2018-12-24T22:56:04.140Z,4.60
2018-12-24T22:58:32.297Z,4.40
2018-12-24T23:01:00.498Z,4.70
2018-12-24T23:03:28.631Z,4.50
2018-12-24T23:05:56.844Z,4.30
2018-12-24T23:08:24.984Z,4.20
2018-12-24T23:10:53.158Z,4.20
2018-12-24T23:13:21.602Z,4.40
2018-12-24T23:15:50.791Z,4.30
2018-12-24T23:18:18.906Z,4.30
2018-12-24T23:20:47.157Z,4.10
2018-12-24T23:23:15.269Z,4.70
2018-12-24T23:25:43.432Z,5.00
2018-12-24T23:28:11.605Z,5.00
2018-12-24T23:30:39.788Z,5.00
2018-12-24T23:33:07.952Z,5.00
2018-12-24T23:35:36.359Z,4.90
2018-12-24T23:38:04.515Z,5.00
2018-12-24T23:40:32.693Z,4.60
2018-12-24T23:43:00.861Z,4.40
2018-12-24T23:45:29.069Z,4.40
2018-12-24T23:47:57.194Z,4.10
2018-12-24T23:50:25.383Z,4.20
2018-12-24T23:52:53.538Z,4.10
2018-12-24T23:55:21.710Z,4.10
2018-12-24T23:57:49.922Z,4.20
